Time;durP1;ratioP1;P1;durP2;ratioP2;P2;SDS_P1;SDS_P2;PMS_P1;PMS_P2;Temp;Humidity;BMP_temperature;BMP_pressure;BME280_temperature;BME280_humidity;BME280_pressure;Samples;Min_cycle;Max_cycle;Signal;HPM_P1;HPM_P2
2022/02/04 00:07:22;;;;;;;49.47;31.88;;;7.80;99.90;;;;;;5033523;28;20459;-92
2022/02/04 00:23:22;;;;;;;53.90;33.35;;;7.80;99.90;;;;;;5031940;28;20474;-92
2022/02/04 00:25:56;;;;;;;50.28;31.98;;;7.80;99.90;;;;;;5015098;28;20109;-93
2022/02/04 00:31:06;;;;;;;52.80;31.58;;;7.80;99.90;;;;;;5030597;28;20025;-93
2022/02/04 00:33:34;;;;;;;54.15;32.03;;;7.80;99.90;;;;;;5013689;28;20022;-93
2022/02/04 00:36:09;;;;;;;50.38;31.58;;;7.80;99.90;;;;;;5014780;28;20044;-92
2022/02/04 00:38:39;;;;;;;48.90;30.75;;;7.80;99.90;;;;;;5005917;28;20022;-93
2022/02/04 00:41:09;;;;;;;51.25;32.42;;;7.80;99.90;;;;;;5011942;28;20067;-94
2022/02/04 00:43:35;;;;;;;47.92;29.23;;;7.80;99.90;;;;;;5029388;28;20100;-91
2022/02/04 00:48:37;;;;;;;48.65;30.60;;;7.80;99.90;;;;;;5029920;28;20112;-92
2022/02/04 00:56:32;;;;;;;45.95;28.48;;;7.80;99.90;;;;;;5033581;28;20044;-92
2022/02/04 01:26:11;;;;;;;35.85;22.95;;;7.80;99.90;;;;;;5030276;28;20087;-92
2022/02/04 01:28:40;;;;;;;36.38;23.73;;;7.80;99.90;;;;;;5012951;28;20045;-93
2022/02/04 01:31:07;;;;;;;35.78;23.23;;;7.80;99.90;;;;;;5012832;28;20017;-91
2022/02/04 01:33:33;;;;;;;34.65;23.40;;;7.80;99.90;;;;;;5029213;28;20064;-92
2022/02/04 01:35:59;;;;;;;32.67;20.70;;;7.80;99.90;;;;;;5030994;28;20060;-92
2022/02/04 01:38:27;;;;;;;37.63;23.63;;;7.80;99.90;;;;;;5029840;28;20115;-93
2022/02/04 01:40:54;;;;;;;35.28;22.17;;;7.80;99.90;;;;;;5028382;28;20386;-92
2022/02/04 01:43:22;;;;;;;34.50;21.67;;;7.80;99.90;;;;;;5013588;28;20088;-92
2022/02/04 01:45:49;;;;;;;33.47;22.17;;;7.80;99.90;;;;;;5029232;28;20030;-94
2022/02/04 01:48:14;;;;;;;32.78;20.58;;;7.80;99.90;;;;;;5029977;28;20034;-92
2022/02/04 01:50:41;;;;;;;32.67;22.17;;;7.80;99.90;;;;;;5014485;28;20034;-92
2022/02/04 01:53:06;;;;;;;33.22;21.05;;;7.80;99.90;;;;;;5012497;28;20156;-92
2022/02/04 01:55:32;;;;;;;34.28;21.33;;;7.80;99.90;;;;;;5009638;28;20124;-93
2022/02/04 01:57:58;;;;;;;32.30;20.70;;;7.80;99.90;;;;;;5013318;28;20541;-93
2022/02/04 02:00:23;;;;;;;33.40;20.73;;;7.80;99.90;;;;;;5013389;28;20056;-92
2022/02/04 02:02:51;;;;;;;31.65;19.90;;;7.80;99.90;;;;;;5010556;28;20398;-92
2022/02/04 02:05:17;;;;;;;28.27;19.42;;;7.80;99.90;;;;;;5012799;28;20080;-93
2022/02/04 02:07:47;;;;;;;30.23;17.90;;;7.80;99.90;;;;;;5013029;28;20029;-92
2022/02/04 02:10:17;;;;;;;32.30;20.35;;;7.80;99.90;;;;;;5011446;28;20032;-91
2022/02/04 02:12:56;;;;;;;28.50;18.60;;;7.80;99.90;;;;;;5012514;28;20021;-92
2022/02/04 02:15:39;;;;;;;27.38;17.48;;;7.80;99.90;;;;;;5008466;28;20033;-93
2022/02/04 02:48:11;;;;;;;22.33;14.57;;;7.80;99.90;;;;;;5030772;28;20470;-92
2022/02/04 02:50:58;;;;;;;25.63;15.48;;;7.80;99.90;;;;;;5026169;28;20032;-92
2022/02/04 02:53:49;;;;;;;25.17;15.35;;;7.80;99.90;;;;;;5007941;28;20033;-93
2022/02/04 02:56:49;;;;;;;22.73;13.50;;;7.80;99.90;;;;;;5010287;28;20025;-92
2022/02/04 02:59:08;;;;;;;23.95;14.52;;;7.80;99.90;;;;;;5028928;28;20053;-93
2022/02/04 03:01:34;;;;;;;21.83;12.95;;;7.80;99.90;;;;;;5012908;28;20401;-93
2022/02/04 03:04:05;;;;;;;23.10;13.27;;;7.80;99.90;;;;;;5011030;28;20021;-92
2022/02/04 03:06:30;;;;;;;22.27;13.30;;;7.80;99.90;;;;;;5011178;28;20463;-92
2022/02/04 03:08:56;;;;;;;20.88;13.10;;;7.80;99.90;;;;;;5010243;28;20038;-92
2022/02/04 03:11:22;;;;;;;18.67;12.43;;;7.80;99.90;;;;;;5012204;28;20065;-92
2022/02/04 03:13:47;;;;;;;19.42;11.95;;;7.80;99.90;;;;;;5010935;28;20793;-92
2022/02/04 03:16:17;;;;;;;20.00;11.77;;;7.80;99.90;;;;;;5011603;28;20366;-92
2022/02/04 03:18:43;;;;;;;20.10;12.60;;;7.90;99.90;;;;;;5010421;28;20136;-92
2022/02/04 03:21:15;;;;;;;17.73;10.70;;;7.90;99.90;;;;;;5029511;28;20061;-92
2022/02/04 03:23:48;;;;;;;19.20;12.00;;;7.90;99.90;;;;;;5016037;28;20057;-92
2022/02/04 03:26:24;;;;;;;19.15;11.27;;;7.90;99.90;;;;;;5031410;28;20040;-92
2022/02/04 03:28:49;;;;;;;19.00;11.75;;;7.90;99.90;;;;;;5016928;28;20060;-92
2022/02/04 03:31:15;;;;;;;20.48;11.63;;;7.90;99.90;;;;;;5013490;28;20061;-93
2022/02/04 03:33:43;;;;;;;17.95;11.25;;;7.90;99.90;;;;;;5033747;28;20033;-92
2022/02/04 03:36:08;;;;;;;15.70;10.45;;;7.90;99.90;;;;;;5011473;28;20124;-92
2022/02/04 03:38:34;;;;;;;21.67;11.55;;;7.90;99.90;;;;;;5011713;28;20039;-92
2022/02/04 03:40:59;;;;;;;17.75;11.48;;;7.90;99.90;;;;;;5030391;28;20037;-92
2022/02/04 03:43:25;;;;;;;16.13;10.05;;;7.90;99.90;;;;;;5032973;28;20041;-93
2022/02/04 03:45:50;;;;;;;17.00;11.05;;;7.90;99.90;;;;;;5032195;28;20041;-91
2022/02/04 03:48:16;;;;;;;18.00;11.15;;;7.90;99.90;;;;;;5032593;28;20105;-92
2022/02/04 03:50:42;;;;;;;19.63;10.98;;;7.90;99.90;;;;;;5033031;28;20385;-93
2022/02/04 03:53:12;;;;;;;16.67;9.73;;;7.90;99.90;;;;;;5014858;28;20075;-92
2022/02/04 03:55:38;;;;;;;15.90;9.23;;;7.90;99.90;;;;;;5016570;28;20025;-93
2022/02/04 03:58:04;;;;;;;19.00;10.63;;;7.80;99.90;;;;;;5013725;28;20033;-94
2022/02/04 04:00:29;;;;;;;18.05;11.35;;;7.90;99.90;;;;;;5014796;28;20071;-93
2022/02/04 04:02:55;;;;;;;17.90;10.35;;;7.90;99.90;;;;;;5014806;28;20029;-93
2022/02/04 04:05:20;;;;;;;17.30;9.52;;;7.80;99.90;;;;;;5030646;28;20057;-94
2022/02/04 04:07:48;;;;;;;18.70;11.30;;;7.90;99.90;;;;;;5014218;28;20021;-92
2022/02/04 04:10:24;;;;;;;16.73;9.43;;;7.90;99.90;;;;;;5012964;28;20393;-93
2022/02/04 04:12:50;;;;;;;15.20;9.60;;;7.90;99.90;;;;;;5032614;28;20033;-93
2022/02/04 04:15:17;;;;;;;18.70;9.95;;;7.90;99.90;;;;;;5032454;28;20497;-93
2022/02/04 04:17:45;;;;;;;17.10;10.40;;;7.90;99.90;;;;;;5009194;28;20030;-93
2022/02/04 04:20:19;;;;;;;15.25;9.10;;;7.90;99.90;;;;;;5016474;28;20021;-92
2022/02/04 04:22:45;;;;;;;17.55;9.48;;;7.90;99.90;;;;;;5029878;28;20068;-93
2022/02/04 04:25:12;;;;;;;15.32;9.10;;;7.80;99.90;;;;;;5034868;28;20044;-93
2022/02/04 04:27:40;;;;;;;14.38;9.43;;;7.90;99.90;;;;;;5032047;28;20036;-93
2022/02/04 04:30:07;;;;;;;15.32;8.85;;;7.80;99.90;;;;;;5030573;28;20386;-93
2022/02/04 04:32:32;;;;;;;16.17;8.68;;;7.90;99.90;;;;;;5027005;28;20116;-93
2022/02/04 04:34:58;;;;;;;15.80;9.18;;;7.90;99.90;;;;;;5015518;28;20497;-93
2022/02/04 04:37:24;;;;;;;16.95;9.25;;;7.90;99.90;;;;;;5008276;28;20025;-93
2022/02/04 04:42:30;;;;;;;15.77;8.50;;;7.90;99.90;;;;;;5031284;28;20037;-91
2022/02/04 05:26:15;;;;;;;8.65;5.38;;;8.20;99.90;;;;;;5028641;28;20039;-93
2022/02/04 05:31:17;;;;;;;8.57;5.20;;;8.20;99.90;;;;;;5031384;28;20026;-91
2022/02/04 05:33:43;;;;;;;8.30;5.07;;;8.30;99.90;;;;;;5011228;28;20036;-93
2022/02/04 05:36:10;;;;;;;9.23;5.00;;;8.20;99.90;;;;;;5032249;28;20493;-95
2022/02/04 05:38:36;;;;;;;7.85;4.35;;;8.30;99.90;;;;;;5011090;28;20033;-93
2022/02/04 05:41:03;;;;;;;7.50;4.63;;;8.30;99.90;;;;;;5031536;28;20132;-94
2022/02/04 05:43:32;;;;;;;6.93;4.18;;;8.30;99.90;;;;;;5011276;28;20053;-94
2022/02/04 05:46:19;;;;;;;9.60;4.35;;;8.30;99.90;;;;;;5014947;28;20033;-92
2022/02/04 05:48:50;;;;;;;10.98;4.80;;;8.30;99.90;;;;;;5015108;28;20026;-93
2022/02/04 05:56:44;;;;;;;5.80;3.78;;;8.10;99.90;;;;;;5029060;28;20025;-94
2022/02/04 06:01:49;;;;;;;6.00;3.45;;;8.10;99.90;;;;;;5029792;28;20119;-93
2022/02/04 06:07:06;;;;;;;7.20;3.78;;;8.00;99.90;;;;;;5022696;28;20026;-94
2022/02/04 06:15:10;;;;;;;6.18;3.42;;;8.00;99.90;;;;;;5022854;28;20477;-94
2022/02/04 06:22:18;;;;;;;6.82;3.25;;;8.00;99.90;;;;;;5024257;28;20113;-95
2022/02/04 06:23:10;;;;;;;6.20;2.75;;;8.00;99.90;;;;;;5023484;28;20111;-93
2022/02/04 06:25:39;;;;;;;6.47;2.90;;;8.00;99.90;;;;;;5005150;28;20056;-95
2022/02/04 06:28:05;;;;;;;5.43;2.80;;;8.00;99.90;;;;;;5009671;28;20021;-93
2022/02/04 06:30:30;;;;;;;6.03;2.92;;;8.00;99.90;;;;;;5026674;28;20048;-94
2022/02/04 06:32:56;;;;;;;7.53;3.30;;;8.00;99.90;;;;;;5024863;28;20067;-94
2022/02/04 06:35:22;;;;;;;6.63;3.50;;;8.10;99.90;;;;;;5026863;28;20033;-94
2022/02/04 06:37:47;;;;;;;4.47;2.80;;;8.10;99.90;;;;;;5009354;28;20044;-93
2022/02/04 06:40:13;;;;;;;6.68;3.65;;;8.00;99.90;;;;;;5010962;28;20022;-95
2022/02/04 06:42:38;;;;;;;4.80;2.95;;;8.10;99.90;;;;;;5028941;28;20044;-93
2022/02/04 06:45:05;;;;;;;3.88;2.95;;;8.10;99.90;;;;;;5024786;28;20029;-94
2022/02/04 06:47:31;;;;;;;5.22;3.00;;;8.10;99.90;;;;;;5003985;28;20026;-93
2022/02/04 06:49:57;;;;;;;5.88;2.88;;;8.20;99.90;;;;;;5003055;28;20026;-93
2022/02/04 06:52:23;;;;;;;4.32;3.17;;;8.20;99.90;;;;;;5010068;28;20033;-92
2022/02/04 06:54:48;;;;;;;4.65;3.38;;;8.20;99.90;;;;;;5005380;28;20240;-93
2022/02/04 06:57:14;;;;;;;7.18;4.05;;;8.20;99.90;;;;;;5007580;28;20041;-93
2022/02/04 06:59:42;;;;;;;4.82;2.90;;;8.20;99.90;;;;;;5009414;28;20046;-93
2022/02/04 07:02:08;;;;;;;6.25;3.22;;;8.20;99.90;;;;;;5016703;28;20042;-93
2022/02/04 07:04:35;;;;;;;6.82;4.22;;;8.20;99.90;;;;;;5012804;28;20090;-92
2022/02/04 07:07:02;;;;;;;7.90;3.50;;;8.20;99.90;;;;;;5012127;28;20116;-93
2022/02/04 07:10:10;;;;;;;8.57;3.20;;;8.20;99.90;;;;;;5028563;28;20113;-92
2022/02/04 07:12:30;;;;;;;8.40;3.67;;;8.20;99.90;;;;;;5027841;28;20104;-93
2022/02/04 07:17:28;;;;;;;6.68;2.95;;;8.20;99.90;;;;;;5028682;28;20037;-93
2022/02/04 07:19:56;;;;;;;6.05;3.30;;;8.20;99.90;;;;;;5012860;28;20501;-92
2022/02/04 07:22:23;;;;;;;4.78;2.72;;;8.20;99.90;;;;;;5010710;28;20037;-92
2022/02/04 07:24:51;;;;;;;7.20;2.80;;;8.20;99.90;;;;;;5030977;28;20029;-92
2022/02/04 07:27:17;;;;;;;4.95;3.33;;;8.20;99.90;;;;;;5014838;28;20560;-91
2022/02/04 07:29:52;;;;;;;4.70;3.08;;;8.20;99.90;;;;;;5015717;28;20107;-91
2022/02/04 07:32:24;;;;;;;6.03;3.42;;;8.20;99.90;;;;;;5011531;28;20041;-92
2022/02/04 07:42:48;;;;;;;4.78;2.92;;;8.20;99.90;;;;;;5023753;28;20098;-94
2022/02/04 07:45:14;;;;;;;7.10;3.38;;;8.10;99.90;;;;;;5015460;28;20883;-94
2022/02/04 07:47:40;;;;;;;7.13;3.72;;;8.10;99.90;;;;;;5015206;28;20025;-93
2022/02/04 07:50:06;;;;;;;9.88;4.65;;;8.10;99.90;;;;;;5027917;28;20035;-93
2022/02/04 07:52:33;;;;;;;7.25;3.92;;;8.10;99.90;;;;;;5029320;28;20508;-94
2022/02/04 07:54:58;;;;;;;8.90;4.55;;;8.10;99.90;;;;;;5030818;28;20033;-94
2022/02/04 07:57:24;;;;;;;7.50;4.55;;;8.10;99.90;;;;;;5027138;28;20041;-95
2022/02/04 07:59:49;;;;;;;7.30;4.80;;;8.10;99.90;;;;;;5009323;28;20049;-94
2022/02/04 08:02:15;;;;;;;8.57;4.95;;;8.10;99.90;;;;;;5006323;28;20030;-94
2022/02/04 08:04:43;;;;;;;8.07;4.57;;;8.10;99.90;;;;;;5026167;28;20040;-95
2022/02/04 08:07:13;;;;;;;8.45;4.63;;;8.10;99.90;;;;;;5010923;28;20030;-94
2022/02/04 08:12:37;;;;;;;9.05;5.50;;;8.10;99.90;;;;;;5014213;28;20029;-92
2022/02/04 08:36:09;;;;;;;9.13;6.35;;;8.20;99.90;;;;;;5006758;28;20053;-93
2022/02/04 08:38:35;;;;;;;9.13;5.60;;;8.20;99.90;;;;;;5010633;28;20034;-93
2022/02/04 08:57:22;;;;;;;8.38;6.30;;;8.40;99.90;;;;;;5009779;28;20021;-92
2022/02/04 09:00:01;;;;;;;8.48;6.07;;;8.40;99.90;;;;;;5026449;28;20041;-92
2022/02/04 09:04:57;;;;;;;9.88;6.47;;;8.50;99.90;;;;;;5004874;28;20022;-91
2022/02/04 09:07:26;;;;;;;12.07;6.50;;;8.60;99.90;;;;;;5022855;28;20026;-92
2022/02/04 09:09:53;;;;;;;9.05;6.57;;;8.60;99.90;;;;;;5009376;28;20022;-91
2022/02/04 09:20:24;;;;;;;10.95;6.93;;;8.50;99.90;;;;;;5010703;28;20026;-95
2022/02/04 09:22:50;;;;;;;;;;;8.40;99.90;;;;;;5007020;28;20037;-93
2022/02/04 09:25:17;;;;;;;10.48;6.85;;;8.40;99.90;;;;;;5024154;28;20313;-94
2022/02/04 09:27:43;;;;;;;9.48;6.55;;;8.40;99.90;;;;;;5008547;28;20075;-92
2022/02/04 09:30:12;;;;;;;10.05;7.38;;;8.40;99.90;;;;;;5022029;28;20026;-93
2022/02/04 09:32:39;;;;;;;10.35;7.70;;;8.40;99.90;;;;;;5010261;28;20033;-92
2022/02/04 09:35:07;;;;;;;10.55;7.45;;;8.40;99.90;;;;;;5010374;28;20990;-93
2022/02/04 09:37:33;;;;;;;9.27;7.15;;;8.50;99.90;;;;;;5025734;28;20022;-93
2022/02/04 09:39:59;;;;;;;12.68;7.72;;;8.50;99.90;;;;;;5010892;28;20028;-93
2022/02/04 09:42:26;;;;;;;8.63;7.07;;;8.50;99.90;;;;;;5004784;28;20125;-92
2022/02/04 09:44:52;;;;;;;9.05;6.55;;;8.50;99.90;;;;;;5014040;28;20116;-93
2022/02/04 09:47:19;;;;;;;10.02;7.32;;;8.50;99.90;;;;;;5004212;28;20117;-94
2022/02/04 09:49:49;;;;;;;9.32;7.22;;;8.60;99.90;;;;;;5004422;28;20045;-94
2022/02/04 10:12:08;;;;;;;8.02;4.90;;;8.80;99.90;;;;;;5028459;28;20182;-93
2022/02/04 10:17:09;;;;;;;5.57;4.07;;;8.80;99.90;;;;;;5023624;28;20060;-95
2022/02/04 10:19:48;;;;;;;5.53;4.03;;;8.70;99.90;;;;;;5032167;28;20013;-94
2022/02/04 10:22:25;;;;;;;5.78;4.70;;;8.60;99.90;;;;;;5029806;28;20108;-94
2022/02/04 10:24:57;;;;;;;5.25;4.75;;;8.50;99.90;;;;;;5010978;28;20155;-95
2022/02/04 10:27:25;;;;;;;7.20;5.47;;;8.40;99.90;;;;;;5028634;28;20493;-93
2022/02/04 10:30:10;;;;;;;5.80;4.72;;;8.40;99.90;;;;;;5016864;28;20036;-91
2022/02/04 10:32:35;;;;;;;8.05;5.38;;;8.40;99.90;;;;;;5027550;28;20441;-93
2022/02/04 10:35:17;;;;;;;6.63;4.68;;;8.50;99.90;;;;;;5016683;28;20029;-92
2022/02/04 10:37:55;;;;;;;5.90;4.97;;;8.50;99.90;;;;;;5027548;28;20024;-91
2022/02/04 10:40:25;;;;;;;6.28;5.03;;;8.60;99.90;;;;;;5011921;28;20034;-92
2022/02/04 10:48:01;;;;;;;6.78;4.50;;;8.60;99.90;;;;;;5038181;28;20037;-91
2022/02/04 10:53:53;;;;;;;5.80;4.35;;;8.70;99.90;;;;;;5029656;28;20044;-90
2022/02/04 10:59:09;;;;;;;4.43;3.50;;;8.80;99.90;;;;;;5024965;28;20466;-91
2022/02/04 11:02:02;;;;;;;5.15;3.92;;;8.80;99.90;;;;;;5024316;28;20060;-91
2022/02/04 11:07:13;;;;;;;4.45;3.45;;;8.80;99.90;;;;;;5027457;28;20390;-93
2022/02/04 11:35:10;;;;;;;5.20;2.78;;;9.30;99.90;;;;;;5027258;28;20038;-93
2022/02/04 11:43:48;;;;;;;3.25;2.10;;;9.40;99.90;;;;;;5031673;28;20495;-91
2022/02/04 11:55:10;;;;;;;3.63;1.63;;;9.70;99.90;;;;;;5025719;28;20034;-91
2022/02/04 11:57:37;;;;;;;4.30;2.28;;;9.80;99.90;;;;;;5026867;28;20394;-93
2022/02/04 12:00:18;;;;;;;4.63;1.92;;;9.80;99.90;;;;;;5033617;28;20045;-92
2022/02/04 12:02:52;;;;;;;2.92;1.65;;;9.90;99.90;;;;;;5021809;28;20041;-92
2022/02/04 12:05:20;;;;;;;3.25;1.70;;;9.90;99.90;;;;;;5013862;28;20026;-92
2022/02/04 12:08:14;;;;;;;2.60;1.17;;;9.90;99.90;;;;;;5029059;28;20030;-91
2022/02/04 12:10:50;;;;;;;2.47;1.67;;;9.90;99.90;;;;;;5035757;28;20113;-94
2022/02/04 12:13:17;;;;;;;2.78;1.50;;;9.80;99.90;;;;;;5040487;28;20079;-92
2022/02/04 12:16:04;;;;;;;3.75;1.65;;;9.80;99.90;;;;;;5041777;28;20026;-91
2022/02/04 12:18:45;;;;;;;3.63;2.08;;;9.70;99.90;;;;;;5037916;28;20025;-92
2022/02/04 12:21:19;;;;;;;2.67;1.60;;;9.70;99.90;;;;;;5033355;28;20041;-92
2022/02/04 12:23:48;;;;;;;3.88;2.33;;;9.70;99.90;;;;;;5042238;28;20055;-92
2022/02/04 12:26:22;;;;;;;4.55;2.70;;;9.60;99.90;;;;;;5035828;28;20032;-92
2022/02/04 12:29:01;;;;;;;2.95;2.35;;;9.60;99.90;;;;;;5033068;28;20033;-92
2022/02/04 12:31:30;;;;;;;3.83;2.65;;;9.60;99.90;;;;;;5031442;28;20025;-92
2022/02/04 12:34:05;;;;;;;4.53;2.55;;;9.60;99.90;;;;;;5016803;28;20207;-93
2022/02/04 12:36:39;;;;;;;3.45;2.22;;;9.60;99.90;;;;;;5011150;28;20040;-94
2022/02/04 12:39:08;;;;;;;3.78;2.67;;;9.60;99.90;;;;;;5031507;28;20660;-93
2022/02/04 12:41:38;;;;;;;3.55;2.33;;;9.70;99.90;;;;;;5015225;28;20319;-92
2022/02/04 12:44:09;;;;;;;3.92;2.10;;;9.70;99.90;;;;;;5013170;28;20033;-93
2022/02/04 12:46:34;;;;;;;4.25;2.10;;;9.80;99.90;;;;;;5029421;28;20080;-92
2022/02/04 12:49:01;;;;;;;3.20;1.83;;;9.80;99.90;;;;;;5015891;28;20017;-92
2022/02/04 12:51:33;;;;;;;3.38;1.73;;;9.80;99.90;;;;;;5012918;28;20021;-93
2022/02/04 12:53:59;;;;;;;2.75;1.40;;;9.80;99.90;;;;;;5010419;28;20022;-91
2022/02/04 12:56:38;;;;;;;3.65;1.50;;;9.80;99.90;;;;;;5031506;28;20029;-92
2022/02/04 12:59:53;;;;;;;2.83;1.65;;;9.80;99.90;;;;;;5011785;28;20445;-93
2022/02/04 13:09:58;;;;;;;3.67;1.45;;;9.80;99.90;;;;;;5044393;28;20489;-93
2022/02/04 13:12:23;;;;;;;2.85;1.95;;;9.70;99.90;;;;;;5022091;28;20030;-93
2022/02/04 13:14:50;;;;;;;3.50;1.30;;;9.80;99.90;;;;;;5016485;28;20028;-92
2022/02/04 13:17:33;;;;;;;2.17;1.35;;;9.70;99.90;;;;;;5015883;28;20034;-91
2022/02/04 13:19:59;;;;;;;3.90;1.20;;;9.70;99.90;;;;;;5005965;28;20167;-93
2022/02/04 13:22:25;;;;;;;4.35;1.90;;;9.60;99.90;;;;;;5016131;28;20120;-92
2022/02/04 13:25:24;;;;;;;4.53;1.10;;;9.60;99.90;;;;;;5015564;28;20033;-93
2022/02/04 13:28:16;;;;;;;3.28;1.38;;;9.70;99.90;;;;;;4976988;28;20572;-93
2022/02/04 13:30:48;;;;;;;5.85;2.08;;;9.60;99.90;;;;;;5029996;28;20052;-92
2022/02/04 13:33:16;;;;;;;4.57;2.47;;;9.60;99.90;;;;;;5016894;28;20022;-93
2022/02/04 13:35:43;;;;;;;7.32;2.83;;;9.50;99.90;;;;;;5015746;28;20033;-93
2022/02/04 13:38:23;;;;;;;4.93;2.20;;;9.50;99.90;;;;;;5034057;28;20021;-90
2022/02/04 13:46:40;;;;;;;5.90;2.75;;;9.30;99.90;;;;;;5018042;28;20072;-94
2022/02/04 13:49:29;;;;;;;4.78;2.58;;;9.30;99.90;;;;;;5032683;28;20108;-95
2022/02/04 13:52:10;;;;;;;4.72;3.00;;;9.10;99.90;;;;;;5025137;28;20040;-95
2022/02/04 13:54:56;;;;;;;5.57;3.03;;;9.00;99.90;;;;;;5029886;28;20029;-95
2022/02/04 13:57:41;;;;;;;6.82;3.33;;;9.00;99.90;;;;;;5018890;28;20103;-93
2022/02/04 14:02:50;;;;;;;7.15;3.47;;;8.80;99.90;;;;;;5015984;28;20477;-94
2022/02/04 14:05:40;;;;;;;7.10;4.00;;;8.70;99.90;;;;;;5001948;28;20064;-95
2022/02/04 14:08:09;;;;;;;7.20;3.22;;;8.70;99.90;;;;;;5031099;28;20041;-92
2022/02/04 14:10:46;;;;;;;5.75;3.63;;;8.60;99.90;;;;;;5015764;28;20453;-91
2022/02/04 14:13:13;;;;;;;6.32;3.72;;;8.60;99.90;;;;;;5032072;28;20025;-92
2022/02/04 14:15:42;;;;;;;7.60;3.95;;;8.50;99.90;;;;;;5020027;28;20087;-92
2022/02/04 14:18:10;;;;;;;7.80;3.90;;;8.50;99.90;;;;;;5027272;28;20458;-92
2022/02/04 14:20:39;;;;;;;7.95;3.92;;;8.40;99.90;;;;;;5014016;28;20049;-92
2022/02/04 14:23:05;;;;;;;5.57;3.45;;;8.40;99.90;;;;;;5015132;28;20033;-91
2022/02/04 14:25:32;;;;;;;9.25;4.78;;;8.40;99.90;;;;;;5032574;28;20091;-93
2022/02/04 14:28:02;;;;;;;5.47;3.70;;;8.40;99.90;;;;;;5022540;28;20501;-91
2022/02/04 14:30:33;;;;;;;8.93;4.22;;;8.30;99.90;;;;;;5016577;28;20022;-91
2022/02/04 14:33:14;;;;;;;9.95;4.68;;;8.30;99.90;;;;;;5013584;28;20030;-91
2022/02/04 14:35:51;;;;;;;7.18;4.32;;;8.20;99.90;;;;;;5012615;28;20026;-91
2022/02/04 14:49:27;;;;;;;6.65;3.50;;;8.20;99.90;;;;;;5025805;28;20064;-90
2022/02/04 14:54:48;;;;;;;7.03;0.60;;;7.50;99.90;;;;;;5035695;28;20033;-87
2022/02/04 15:00:33;;;;;;;1.08;0.20;;;4.90;99.90;;;;;;5022375;28;20118;-87
2022/02/04 15:03:16;;;;;;;2.15;0.20;;;4.40;99.90;;;;;;5015803;28;20080;-88
2022/02/04 15:05:46;;;;;;;2.05;0.20;;;4.20;99.90;;;;;;5018812;28;20045;-88
2022/02/04 15:08:15;;;;;;;1.45;0.05;;;4.30;99.90;;;;;;5011311;28;20128;-88
2022/02/04 15:10:43;;;;;;;2.47;0.10;;;4.20;99.90;;;;;;5009553;28;20548;-88
2022/02/04 15:13:14;;;;;;;0.17;0.10;;;4.20;99.90;;;;;;5013354;28;20022;-88
2022/02/04 15:15:40;;;;;;;1.35;0.10;;;4.10;99.90;;;;;;5009478;28;20137;-89
2022/02/04 15:18:06;;;;;;;1.23;0.10;;;4.10;99.90;;;;;;5012790;28;20124;-87
2022/02/04 15:20:32;;;;;;;1.85;0.10;;;4.00;99.90;;;;;;5014034;28;20576;-88
2022/02/04 15:22:58;;;;;;;0.60;0.10;;;4.00;99.90;;;;;;5015027;28;20137;-88
2022/02/04 15:25:24;;;;;;;1.25;0.10;;;3.90;99.90;;;;;;5016857;28;20120;-87
2022/02/04 15:28:15;;;;;;;1.05;0.20;;;3.90;99.90;;;;;;5019562;28;20140;-88
2022/02/04 15:30:44;;;;;;;1.30;0.20;;;3.80;99.90;;;;;;5029551;28;20100;-87
2022/02/04 15:33:10;;;;;;;0.57;0.20;;;3.70;99.90;;;;;;5025312;28;20045;-88
2022/02/04 15:35:36;;;;;;;1.05;0.50;;;3.80;99.90;;;;;;5017878;28;20033;-88
2022/02/04 15:38:02;;;;;;;1.35;0.40;;;3.70;99.90;;;;;;5035252;28;20025;-90
2022/02/04 15:40:28;;;;;;;0.95;0.50;;;3.80;99.90;;;;;;5039908;28;20026;-89
2022/02/04 15:42:59;;;;;;;1.38;0.55;;;3.80;99.90;;;;;;5022017;28;20043;-88
2022/02/04 15:50:59;;;;;;;2.40;0.60;;;4.00;99.90;;;;;;5034213;28;20021;-88
2022/02/04 15:53:52;;;;;;;1.20;0.60;;;3.90;99.90;;;;;;5034627;28;20092;-89
2022/02/04 15:56:30;;;;;;;2.05;0.60;;;3.90;99.90;;;;;;5019405;28;20044;-89
2022/02/04 16:02:14;;;;;;;4.50;0.90;;;4.00;99.90;;;;;;4993816;28;20053;-90
2022/02/04 16:04:43;;;;;;;1.60;0.77;;;4.00;99.90;;;;;;5033071;28;20044;-90
2022/02/04 16:07:09;;;;;;;1.92;0.80;;;4.00;99.90;;;;;;5021640;28;20061;-89
2022/02/04 16:09:35;;;;;;;1.83;0.73;;;4.00;99.90;;;;;;5037090;28;20060;-89
2022/02/04 16:12:16;;;;;;;1.63;0.70;;;4.00;99.90;;;;;;5019004;28;20141;-89
2022/02/04 16:15:10;;;;;;;2.15;0.80;;;4.00;99.90;;;;;;5016940;28;20025;-90
2022/02/04 16:20:15;;;;;;;3.13;0.50;;;4.00;99.90;;;;;;5032644;28;20030;-89
2022/02/04 16:25:55;;;;;;;2.97;0.80;;;4.00;99.90;;;;;;5035385;28;20037;-90
2022/02/04 16:28:41;;;;;;;2.15;0.68;;;4.00;99.90;;;;;;5011563;28;20657;-91
2022/02/04 16:31:09;;;;;;;1.55;0.60;;;4.10;99.90;;;;;;5017078;28;20029;-90
2022/02/04 16:33:35;;;;;;;1.48;0.60;;;4.00;99.90;;;;;;5015635;28;20036;-89
2022/02/04 16:36:08;;;;;;;2.97;0.60;;;4.00;99.90;;;;;;5048953;28;20017;-89
2022/02/04 16:38:33;;;;;;;3.85;0.60;;;4.00;99.90;;;;;;5019867;28;20059;-89
2022/02/04 16:41:06;;;;;;;1.20;0.50;;;3.90;99.90;;;;;;5026121;28;20029;-89
2022/02/04 16:43:35;;;;;;;3.22;0.40;;;3.90;99.90;;;;;;5020817;28;20025;-89
2022/02/04 16:46:05;;;;;;;3.47;0.28;;;3.90;99.90;;;;;;5018038;28;20022;-89
2022/02/04 16:48:31;;;;;;;1.40;0.38;;;3.80;99.90;;;;;;5028032;28;20040;-89
2022/02/04 16:50:57;;;;;;;3.70;0.30;;;3.80;99.90;;;;;;5016570;28;20025;-88
2022/02/04 16:53:22;;;;;;;2.08;0.30;;;3.80;99.90;;;;;;5015182;28;20088;-89
2022/02/04 16:55:48;;;;;;;1.60;0.43;;;3.80;99.90;;;;;;5017376;28;20081;-89
2022/02/04 16:58:13;;;;;;;2.60;0.38;;;3.80;99.90;;;;;;5013223;28;20052;-89
2022/02/04 17:00:39;;;;;;;3.10;0.50;;;3.80;99.90;;;;;;5012508;28;20037;-88
2022/02/04 17:03:10;;;;;;;2.28;0.35;;;3.80;99.90;;;;;;5013855;28;20044;-90
2022/02/04 17:05:50;;;;;;;2.35;0.30;;;3.70;99.90;;;;;;5032829;28;20037;-89
2022/02/04 17:08:23;;;;;;;3.53;0.20;;;3.80;99.90;;;;;;5010868;28;20033;-90
2022/02/04 17:10:54;;;;;;;3.15;0.47;;;3.70;99.90;;;;;;5009975;28;20025;-90
2022/02/04 17:13:23;;;;;;;3.67;0.30;;;3.70;99.90;;;;;;5014854;28;20033;-90
2022/02/04 17:15:49;;;;;;;4.85;0.22;;;3.70;99.90;;;;;;5015216;28;20029;-90
2022/02/04 17:18:15;;;;;;;4.88;0.30;;;3.70;99.90;;;;;;5011886;28;20482;-90
2022/02/04 17:20:41;;;;;;;2.67;0.32;;;3.60;99.90;;;;;;5012456;28;20029;-90
2022/02/04 17:23:09;;;;;;;4.90;0.60;;;3.60;99.90;;;;;;5016275;28;20541;-90
2022/02/04 17:25:39;;;;;;;6.78;0.45;;;3.60;99.90;;;;;;5018816;28;20023;-89
2022/02/04 17:28:05;;;;;;;7.97;0.82;;;3.70;99.90;;;;;;5012313;28;20029;-90
2022/02/04 17:30:31;;;;;;;4.93;0.30;;;3.70;99.90;;;;;;5014476;28;20018;-90
2022/02/04 17:32:57;;;;;;;4.45;0.22;;;3.70;99.90;;;;;;5012699;28;20440;-90
2022/02/04 17:35:25;;;;;;;2.17;0.30;;;3.70;99.90;;;;;;5015106;28;20030;-89
2022/02/04 17:37:54;;;;;;;3.00;0.30;;;3.70;99.90;;;;;;5015316;28;20082;-90
2022/02/04 17:40:19;;;;;;;1.67;0.32;;;3.70;99.90;;;;;;5014569;28;20064;-89
2022/02/04 17:42:46;;;;;;;4.60;0.50;;;3.60;99.90;;;;;;5013901;28;20081;-90
2022/02/04 17:45:21;;;;;;;4.78;0.40;;;3.60;99.90;;;;;;5028934;28;20029;-90
2022/02/04 17:47:53;;;;;;;4.20;1.20;;;3.60;99.90;;;;;;5015408;28;20040;-89
2022/02/04 17:50:27;;;;;;;3.37;0.50;;;3.50;99.90;;;;;;5010743;28;20071;-89
2022/02/04 17:53:00;;;;;;;4.20;0.25;;;3.50;99.90;;;;;;5016301;28;20416;-90
2022/02/04 17:55:29;;;;;;;5.95;0.40;;;3.50;99.90;;;;;;5028368;28;20159;-89
2022/02/04 17:57:58;;;;;;;4.85;0.22;;;3.50;99.90;;;;;;5029043;28;20022;-90
2022/02/04 18:03:04;;;;;;;7.70;1.17;;;3.40;99.90;;;;;;5028062;28;20038;-90
2022/02/04 18:07:56;;;;;;;3.75;0.40;;;3.40;99.90;;;;;;5027739;28;20033;-89
2022/02/04 18:10:22;;;;;;;9.35;0.50;;;3.40;99.90;;;;;;5034555;28;20037;-90
2022/02/04 18:12:48;;;;;;;7.13;0.43;;;3.40;99.90;;;;;;5014054;28;20025;-90
2022/02/04 18:15:13;;;;;;;7.43;0.50;;;3.40;99.90;;;;;;5015027;28;20025;-90
2022/02/04 18:17:39;;;;;;;3.00;0.50;;;3.30;99.90;;;;;;5009435;28;20076;-90
2022/02/04 18:20:06;;;;;;;3.78;0.60;;;3.30;99.90;;;;;;5015220;28;20084;-90
2022/02/04 18:22:32;;;;;;;6.20;0.50;;;3.30;99.90;;;;;;5014749;28;20116;-91
2022/02/04 18:24:57;;;;;;;6.43;0.90;;;3.30;99.90;;;;;;5013546;28;20025;-90
2022/02/04 18:27:23;;;;;;;9.82;0.50;;;3.20;99.90;;;;;;5014692;28;20025;-90
2022/02/04 18:29:54;;;;;;;4.40;0.77;;;3.20;99.90;;;;;;5018794;28;20441;-90
2022/02/04 18:32:22;;;;;;;5.65;0.50;;;3.20;99.90;;;;;;5014764;28;20112;-90
2022/02/04 18:34:48;;;;;;;5.63;0.57;;;3.20;99.90;;;;;;5013663;28;20021;-90
2022/02/04 18:37:14;;;;;;;11.85;0.70;;;3.20;99.90;;;;;;5015021;28;20116;-90
2022/02/04 18:42:55;;;;;;;8.73;0.77;;;3.20;99.90;;;;;;5027795;28;20466;-90
2022/02/04 18:45:22;;;;;;;4.97;0.80;;;3.20;99.90;;;;;;5029311;28;20029;-91
2022/02/04 18:50:26;;;;;;;11.32;1.15;;;3.10;99.90;;;;;;5032354;28;20490;-91
2022/02/04 18:58:05;;;;;;;15.40;2.15;;;3.30;99.90;;;;;;5031827;28;20117;-89
2022/02/04 19:00:31;;;;;;;18.13;2.22;;;3.40;99.90;;;;;;5010640;28;20104;-91
2022/02/04 19:03:00;;;;;;;10.23;2.42;;;3.50;99.90;;;;;;5008751;28;20047;-90